Latest Weather Observations for Winton

IDQ60801

Issued at 4:05 pm EST Saturday 2 August 2014 (issued every 30 minutes, with the page automatically refreshed every 10 minutes)

About weather observations | Map of weather stations | Latest weather observations for QLD | Other Formats
Station Details ID: 037039 Name: WINTON AIRPORT Lat: -22.36 Lon: 143.08 Height: 192.2 m
Data from the previous 72 hours. | See also: Recent months at Winton
Date/Time
EST
Temp
°C
App
Temp
°C
Dew
Point
Rel
Hum
%
Delta-T
°C
Wind Press
QNH
hPa
Press
MSL
hPa
Rain
since 9 am
mm
Dir
 
Spd
km/h
Gust
km/h
Spd
kts
Gust
kts
02/04:00pm 21.8 16.5 -7.8 13 11.5 S 13 20 7 11 1020.1 1019.7 0.0
02/03:30pm 21.7 16.3 -7.9 13 11.4 S 13 20 7 11 1020.3 - 0.0
02/03:00pm 21.6 15.6 -7.0 14 11.2 SSE 17 26 9 14 1020.3 1019.9 0.0
02/02:30pm 21.9 15.6 -5.9 15 11.2 SE 19 28 10 15 1020.6 - 0.0
02/02:00pm 21.1 14.2 -5.7 16 10.7 SE 22 33 12 18 1020.9 1020.5 0.0
02/01:30pm 20.6 13.4 -5.3 17 10.4 SSE 24 33 13 18 1021.3 - 0.0
02/01:00pm 21.0 13.9 -4.2 18 10.4 SE 24 32 13 17 1022.0 1021.5 0.0
02/12:30pm 19.2 12.8 -5.0 19 9.7 SE 20 30 11 16 1022.6 - 0.0
02/12:00pm 18.8 11.6 -5.3 19 9.5 SE 24 37 13 20 1023.2 1022.7 0.0
02/11:30am 18.4 10.9 -4.3 21 9.1 ESE 26 33 14 18 1023.5 - 0.0
02/11:00am 17.3 8.5 -4.6 22 8.6 ESE 33 44 18 24 1023.9 1023.5 0.0
02/10:30am 16.8 7.6 -4.4 23 8.4 ESE 35 44 19 24 1024.1 - 0.0
02/10:00am 15.7 6.1 -4.8 24 7.9 SE 37 46 20 25 1024.4 1024.0 0.0
02/09:30am 15.2 5.2 -5.2 24 7.8 SE 39 54 21 29 1024.0 - 0.0
02/09:00am 14.4 4.8 -4.8 26 7.3 SE 37 46 20 25 1023.9 1023.5 0.0
02/08:30am 13.4 4.5 -5.2 27 7.0 SE 33 46 18 25 1023.4 - 0.0
02/08:00am 12.7 4.7 -5.3 28 6.6 SSE 28 37 15 20 1023.1 1022.6 0.0
02/07:30am 12.0 5.2 -5.0 30 6.3 SSE 22 32 12 17 1023.1 - 0.0
02/07:00am 11.5 5.7 -5.0 31 6.0 SSE 17 26 9 14 1023.0 1022.5 0.0
02/06:30am 11.8 5.6 -5.2 30 6.2 SSE 19 30 10 16 1022.9 - 0.0
02/06:00am 12.4 6.0 -4.7 30 6.4 SSE 20 30 11 16 1022.4 1021.9 0.0
02/05:30am 12.6 6.2 -4.5 30 6.4 SSE 20 32 11 17 1022.1 - 0.0
02/05:00am 12.9 6.9 -3.4 32 6.3 SSE 19 26 10 14 1021.9 1021.4 0.0
02/04:30am 12.8 6.7 -2.3 35 6.0 S 20 26 11 14 1021.7 - 0.0
02/04:00am 13.2 7.4 -1.5 36 5.9 S 19 26 10 14 1021.6 1021.1 0.0
02/03:30am 13.4 7.8 -0.3 39 5.7 S 19 24 10 13 1021.2 - 0.0
02/03:00am 13.8 9.1 0.8 41 5.6 S 15 20 8 11 1021.6 1021.1 0.0
02/02:30am 14.1 9.5 1.4 42 5.5 S 15 20 8 11 1021.5 - 0.0
02/02:00am 14.7 9.8 2.3 43 5.5 S 17 22 9 12 1021.6 1021.1 0.0
02/01:30am 15.2 10.7 2.4 42 5.8 S 15 20 8 11 1021.7 - 0.0
02/01:00am 15.9 11.1 2.7 41 6.0 S 17 24 9 13 1021.6 1021.1 0.0
02/12:30am 16.5 11.1 2.5 39 6.4 S 20 26 11 14 1021.1 - 0.0
02/12:00am 16.9 11.7 2.5 38 6.6 S 19 28 10 15 1020.9 1020.5 0.0
 
Date/Time
EST
Temp
°C
App
Temp
°C
Dew
Point
Rel
Hum
%
Delta-T
°C
Wind Press
QNH
hPa
Press
MSL
hPa
Rain
since 9 am
mm
Dir
 
Spd
km/h
Gust
km/h
Spd
kts
Gust
kts
01/11:30pm 17.0 12.1 1.8 36 6.9 S 17 22 9 12 1020.9 - 0.0
01/11:00pm 16.6 11.8 0.3 33 7.1 S 15 19 8 10 1020.7 1020.3 0.0
01/10:30pm 17.1 12.3 -0.1 31 7.5 S 15 20 8 11 1020.6 - 0.0
01/10:00pm 16.2 11.4 -2.3 28 7.6 SSW 13 15 7 8 1020.2 1019.8 0.0
01/09:30pm 15.6 10.9 -4.9 24 7.9 SSW 11 13 6 7 1020.3 - 0.0
01/09:00pm 16.0 10.8 -5.7 22 8.2 S 13 15 7 8 1019.9 1019.5 0.0
01/08:30pm 16.3 11.4 -6.7 20 8.6 S 11 13 6 7 1019.6 - 0.0
01/08:00pm 17.9 12.7 -6.0 19 9.2 S 13 15 7 8 1019.1 1018.7 0.0
01/07:30pm 19.5 14.0 -5.4 18 9.9 SSW 15 17 8 9 1018.6 - 0.0
01/07:00pm 19.3 14.8 -7.1 16 10.1 SSW 9 13 5 7 1018.0 1017.5 0.0
01/06:30pm 21.6 16.7 -7.0 14 11.3 SSW 11 13 6 7 1017.7 - 0.0
01/06:00pm 24.2 18.9 -7.0 12 12.6 SSW 13 17 7 9 1017.2 1016.7 0.0
01/05:30pm 25.8 19.8 -6.9 11 13.5 S 17 24 9 13 1017.1 - 0.0
01/05:00pm 26.6 20.1 -6.2 11 13.8 SSW 20 28 11 15 1016.8 1016.3 0.0
01/04:30pm 26.8 19.9 -6.1 11 13.9 SSW 22 33 12 18 1016.5 - 0.0
01/04:00pm 27.2 19.8 -7.0 10 14.2 SW 24 33 13 18 1016.4 1015.9 0.0
01/03:30pm 26.9 20.4 -6.0 11 13.9 S 20 32 11 17 1016.3 - 0.0
01/03:00pm 27.3 21.0 -5.7 11 14.1 SSW 19 30 10 16 1016.5 1016.0 0.0
01/02:30pm 27.6 21.0 -6.7 10 14.4 SSW 20 35 11 19 1016.7 - 0.0
01/02:00pm 27.7 20.8 -6.6 10 14.4 SSW 22 37 12 20 1016.9 1016.4 0.0
01/01:30pm 27.2 19.9 -5.8 11 14.0 S 24 35 13 19 1017.1 - 0.0
01/01:00pm 26.6 19.6 -7.5 10 14.0 S 22 33 12 18 1017.5 1017.0 0.0
01/12:30pm 26.6 19.6 -7.5 10 14.0 SSW 22 37 12 20 1017.8 - 0.0
01/12:00pm 26.0 18.1 -9.3 9 13.9 S 26 33 14 18 1018.3 1017.8 0.0
01/11:30am 25.8 18.7 -8.1 10 13.6 SSW 22 32 12 17 1018.7 - 0.0
01/11:00am 24.7 18.0 -7.7 11 13.0 S 20 30 11 16 1019.1 1018.7 0.0
01/10:30am 23.8 17.9 -5.3 14 12.1 S 17 24 9 13 1019.4 - 0.0
01/10:00am 22.7 17.7 -4.4 16 11.3 S 13 20 7 11 1019.5 1019.1 0.0
01/09:30am 20.3 15.3 -4.0 19 10.0 S 13 17 7 9 1019.4 - 0.0
01/09:00am 18.4 14.3 -3.1 23 8.9 SSW 9 13 5 7 1019.1 1018.8 0.0
01/08:30am 16.4 12.7 -2.6 27 7.8 WSW 7 11 4 6 1019.0 - 0.0
01/08:00am 14.0 10.0 -2.4 32 6.6 WSW 9 11 5 6 1018.6 1018.3 0.0
01/07:30am 11.5 7.4 -3.4 35 5.7 WSW 9 11 5 6 1018.3 - 0.0
01/07:00am 10.4 6.3 -3.3 38 5.2 W 9 9 5 5 1018.0 1017.7 0.0
01/06:30am 10.1 6.3 -3.6 38 5.1 W 7 7 4 4 1017.6 - 0.0
01/06:00am 10.9 6.8 -3.2 37 5.4 W 9 11 5 6 1017.3 1017.0 0.0
01/05:30am 11.7 8.2 -2.5 37 5.5 WSW 6 7 3 4 1017.0 - 0.0
01/05:00am 12.0 8.6 -2.2 37 5.6 W 6 7 3 4 1016.9 1016.6 0.0
01/04:30am 12.8 8.1 -1.9 36 5.9 WSW 13 13 7 7 1016.6 - 0.0
01/04:00am 13.5 8.4 -1.6 35 6.1 W 15 17 8 9 1016.5 1016.2 0.0
01/03:30am 14.6 9.7 -0.7 35 6.4 WSW 15 17 8 9 1016.4 - 0.0
01/03:00am 14.6 10.0 -0.7 35 6.4 WSW 13 15 7 8 1016.3 1016.0 0.0
01/02:30am 15.0 10.2 0.4 37 6.3 WSW 15 17 8 9 1016.4 - 0.0
01/02:00am 13.9 9.8 -0.5 37 6.0 W 11 13 6 7 1016.6 1016.3 0.0
01/01:30am 14.6 12.1 -1.1 34 6.5 S 2 6 1 3 1016.5 - 0.0
01/01:00am 16.2 12.6 0.7 35 6.8 S 9 11 5 6 1016.3 1016.0 0.0
01/12:30am 16.0 12.0 0.6 35 6.7 WSW 11 20 6 11 1016.6 - 0.0
01/12:00am 15.1 11.6 -1.0 33 6.7 NNE 7 9 4 5 1016.1 1015.7 0.0
 
Date/Time
EST
Temp
°C
App
Temp
°C
Dew
Point
Rel
Hum
%
Delta-T
°C
Wind Press
QNH
hPa
Press
MSL
hPa
Rain
since 9 am
mm
Dir
 
Spd
km/h
Gust
km/h
Spd
kts
Gust
kts
31/11:30pm 16.2 12.1 -0.1 33 7.0 NE 11 15 6 8 1016.2 - 0.0
31/11:00pm 17.1 12.8 0.7 33 7.2 NNE 13 13 7 7 1016.2 1015.8 0.0
31/10:30pm 17.9 14.4 1.4 33 7.4 NNE 9 9 5 5 1016.2 - 0.0
31/10:00pm 18.4 14.9 1.4 32 7.7 NE 9 9 5 5 1016.1 1015.7 0.0
31/09:30pm 18.5 15.5 0.6 30 8.0 NNE 6 7 3 4 1016.1 - 0.0
31/09:00pm 18.5 15.8 0.2 29 8.1 NE 4 4 2 2 1016.0 1015.6 0.0
31/08:30pm 20.9 18.8 1.7 28 8.9 SE 2 2 1 1 1016.0 - 0.0
31/08:00pm 23.1 21.4 4.1 29 9.4 SSE 2 2 1 1 1015.7 1015.4 0.0
31/07:30pm 23.4 21.7 3.9 28 9.6 SSE 2 4 1 2 1015.4 - 0.0
31/07:00pm 24.5 22.1 4.3 27 10.1 SSE 6 6 3 3 1015.0 1014.7 0.0
31/06:30pm 24.3 21.6 2.5 24 10.6 S 6 7 3 4 1014.7 - 0.0
31/06:00pm 26.3 23.8 3.5 23 11.4 S 6 9 3 5 1014.5 1014.2 0.0
31/05:30pm 27.8 25.3 3.5 21 12.3 S 6 9 3 5 1014.5 - 0.0
31/05:00pm 28.0 25.5 3.7 21 12.3 E 6 9 3 5 1014.5 1014.2 0.0
31/04:30pm 28.3 25.3 3.9 21 12.4 SW 9 13 5 7 1014.6 - 0.0
31/04:00pm 28.6 26.1 3.5 20 12.7 W 6 11 3 6 1014.6 1014.3 0.0
31/03:30pm 28.9 24.7 3.7 20 12.8 WSW 15 28 8 15 1014.7 - 0.0
31/03:00pm 28.5 25.9 3.4 20 12.7 WSW 6 15 3 8 1015.1 1014.8 0.0
31/02:30pm 28.4 25.8 3.3 20 12.7 NW 6 11 3 6 1015.3 - 0.0
31/02:00pm 27.9 25.3 4.2 22 12.1 NNW 7 13 4 7 1016.0 1015.6 0.0
31/01:30pm 28.1 24.5 5.0 23 12.0 ENE 13 19 7 10 1016.3 - 0.0
31/01:00pm 27.7 24.8 4.7 23 11.8 NNE 9 20 5 11 1016.8 1016.5 0.0
31/12:30pm 27.8 25.6 5.4 24 11.7 SSE 6 15 3 8 1017.4 - 0.0
31/12:00pm 26.9 23.7 5.2 25 11.2 E 11 19 6 10 1018.3 1018.0 0.0
31/11:30am 26.8 23.7 5.7 26 11.0 NE 11 20 6 11 1018.7 - 0.0
31/11:00am 26.0 21.9 6.1 28 10.4 NE 17 24 9 13 1019.2 1018.9 0.0
31/10:30am 25.1 21.7 7.7 33 9.3 NNE 15 22 8 12 1019.4 - 0.0
31/10:00am 23.0 19.5 7.1 36 8.3 NNE 15 20 8 11 1019.5 1019.2 0.0
31/09:30am 19.9 16.6 6.3 41 6.9 NNE 13 17 7 9 1019.6 - 0.0
31/09:00am 17.9 14.9 4.1 40 6.6 NE 9 13 5 7 1019.4 1019.1 0.0
31/08:30am 15.7 12.7 1.8 39 6.2 ENE 7 9 4 5 1019.1 - 0.0
31/08:00am 13.3 10.0 0.3 41 5.5 ENE 7 9 4 5 1019.0 1018.7 0.0
31/07:30am 11.2 7.1 -0.3 45 4.7 ENE 11 11 6 6 1018.8 - 0.0
31/07:00am 10.1 6.3 -1.0 46 4.4 E 9 11 5 6 1018.5 1018.2 0.0
31/06:30am 10.3 6.9 -0.8 46 4.4 E 7 9 4 5 1018.0 - 0.0
31/06:00am 10.7 6.8 -1.4 43 4.8 ENE 9 11 5 6 1017.7 1017.4 0.0
31/05:30am 11.1 6.9 -1.0 43 4.9 NE 11 11 6 6 1017.6 - 0.0
31/05:00am 11.9 8.7 -0.3 43 5.0 E 6 6 3 3 1017.4 1017.1 0.0
31/04:30am 12.8 9.5 0.2 42 5.3 E 7 7 4 4 1017.2 - 0.0
31/04:00am 13.3 10.3 0.7 42 5.4 E 6 7 3 4 1017.4 1017.1 0.0
31/03:30am 12.8 9.5 -0.1 41 5.4 E 7 9 4 5 1017.5 - 0.0
31/03:00am 13.0 9.6 -0.3 40 5.5 E 7 9 4 5 1017.6 1017.3 0.0
31/02:30am 13.3 9.5 -0.7 38 5.8 ESE 9 11 5 6 1017.6 - 0.0
31/02:00am 14.2 10.5 0.1 38 6.0 E 9 9 5 5 1017.8 1017.5 0.0
31/01:30am 15.0 12.0 0.8 38 6.2 E 6 6 3 3 1017.9 - 0.0
31/01:00am 14.7 11.0 0.2 37 6.2 NE 9 11 5 6 1018.1 1017.8 0.0
31/12:30am 14.2 10.7 -1.4 34 6.4 NE 7 9 4 5 1018.1 - 0.0
31/12:00am 15.3 13.4 0.3 36 6.4 CALM 0 0 0 0 1018.1 1017.8 0.0
 
Date/Time
EST
Temp
°C
App
Temp
°C
Dew
Point
Rel
Hum
%
Delta-T
°C
Wind Press
QNH
hPa
Press
MSL
hPa
Rain
since 9 am
mm
Dir
 
Spd
km/h
Gust
km/h
Spd
kts
Gust
kts
30/11:30pm 15.7 12.6 -0.1 34 6.8 NE 6 7 3 4 1018.4 - 0.0
30/11:00pm 16.7 13.7 0.8 34 7.0 NE 6 7 3 4 1018.6 1018.3 0.0
30/10:30pm 16.9 13.8 0.1 32 7.3 E 6 6 3 3 1018.6 - 0.0
30/10:00pm 18.3 15.4 1.3 32 7.7 E 6 7 3 4 1018.6 1018.3 0.0
30/09:30pm 18.9 15.7 1.0 30 8.1 E 7 9 4 5 1018.5 - 0.0
30/09:00pm 19.5 16.6 1.5 30 8.2 ESE 6 7 3 4 1018.5 1018.2 0.0
30/08:30pm 19.4 15.4 0.4 28 8.5 E 11 11 6 6 1018.3 - 0.0
30/08:00pm 20.8 17.0 1.6 28 8.9 ESE 11 13 6 7 1018.0 1017.7 0.0
30/07:30pm 21.7 18.2 1.4 26 9.4 ESE 9 11 5 6 1017.7 - 0.0
30/07:00pm 22.6 19.5 1.6 25 9.9 ESE 7 9 4 5 1017.4 1017.1 0.0
30/06:30pm 23.7 20.2 1.4 23 10.5 SE 9 11 5 6 1017.2 - 0.0
30/06:00pm 26.0 22.7 2.7 22 11.4 ESE 9 15 5 8 1017.1 1016.8 0.0
30/05:30pm 27.5 23.9 3.2 21 12.2 SE 11 15 6 8 1017.0 - 0.0
30/05:00pm 27.9 23.9 2.9 20 12.5 ESE 13 19 7 10 1016.9 1016.6 0.0
30/04:30pm 28.1 24.9 3.0 20 12.6 E 9 20 5 11 1016.7 - 0.0

Other Formats:

Comma delimited format used in spreadsheet applications
http://www.bom.gov.au/fwo/IDQ60801/IDQ60801.94342.axf

JavaScript Object Notation format (JSON) in row-major order
http://www.bom.gov.au/fwo/IDQ60801/IDQ60801.94342.json